| Back to River Map | <<< Previous Forecast Point | | | Next Forecast Point >>> | Printer Version | Graph Version |  |
|
TRUCKEE RIVER - FARAD (FARC1)
| Latitude: 39.43º N | Longitude: 120.03º W | Elevation: 5153 Feet | | Forecast Type: Official Location |
| Location: Nevada County in California | Bulletin Group: Eastern Sierra | River Group: Eastern Sierra |
| Issuance Time: | May 07 2026 at 7:41 AM PDT | Next Issuance: | May 08 2026 at 9:00 AM PDT
| |
| Action/Monitor: 10.0 Feet | Minor Flood: 11.0 Feet | Moderate Flood: 12.0 Feet | Major Flood: 13.0 Feet |
# Tabular Observed and Forecast Hydrograph Information
#
# Location: Truckee River - Farad (FARC1)
#
# File Generation Time: 05/07/2026 at 07:41 AM PDT
# Data Interval: 1 Hour
#
# Most Recent Date & Time of Maximum Observed: 05/07/2026 at 03:00 AM PDT
# Maximum Observed Stage: 5.16 Feet
# Maximum Observed Flow: 1279 cfs
#
# Earliest Date & Time of Maximum Forecast: 05/08/2026 at 05:00 AM PDT
# Maximum Forecast Stage: 5.16 Feet
# Maximum Forecast Flow: 1279 cfs
#
# OBSERVED
#
# Date & Time (Local) Stage (Feet) Flow (cfs) Trend Observed Status
# ---------------------------------------------------------------------------------
05/02/2026 07 AM PDT 4.88 1052 Normal
05/02/2026 08 AM PDT 4.87 1045 - Normal
05/02/2026 09 AM PDT 4.87 1045 0 Normal
05/02/2026 10 AM PDT 4.87 1045 0 Normal
05/02/2026 11 AM PDT 4.86 1037 - Normal
05/02/2026 12 PM PDT 4.86 1037 0 Normal
05/02/2026 01 PM PDT 4.86 1037 0 Normal
05/02/2026 02 PM PDT 4.85 1029 - Normal
05/02/2026 03 PM PDT 4.87 1045 + Normal
05/02/2026 04 PM PDT 4.91 1075 + Normal
05/02/2026 05 PM PDT 4.91 1075 0 Normal
05/02/2026 06 PM PDT 4.91 1075 0 Normal
05/02/2026 07 PM PDT 4.91 1075 0 Normal
05/02/2026 08 PM PDT 4.92 1083 + Normal
05/02/2026 09 PM PDT 4.92 1083 0 Normal
05/02/2026 10 PM PDT 4.97 1122 + Normal
05/02/2026 11 PM PDT 4.99 1138 + Normal
05/03/2026 12 AM PDT 4.99 1138 0 Normal
05/03/2026 01 AM PDT 5.01 1154 + Normal
05/03/2026 02 AM PDT 5.02 1162 + Normal
05/03/2026 03 AM PDT 5.02 1162 0 Normal
05/03/2026 04 AM PDT 5.02 1162 0 Normal
05/03/2026 05 AM PDT 5.01 1154 - Normal
05/03/2026 06 AM PDT 5.00 1146 - Normal
05/03/2026 07 AM PDT 4.99 1138 - Normal
05/03/2026 08 AM PDT 4.99 1138 0 Normal
05/03/2026 09 AM PDT 4.98 1130 - Normal
05/03/2026 10 AM PDT 4.97 1122 - Normal
05/03/2026 11 AM PDT 4.97 1122 0 Normal
05/03/2026 12 PM PDT 4.96 1114 - Normal
05/03/2026 01 PM PDT 4.96 1114 0 Normal
05/03/2026 02 PM PDT 4.95 1107 - Normal
05/03/2026 03 PM PDT 4.95 1107 0 Normal
05/03/2026 04 PM PDT 4.95 1107 0 Normal
05/03/2026 05 PM PDT 4.95 1107 0 Normal
05/03/2026 06 PM PDT 4.95 1107 0 Normal
05/03/2026 07 PM PDT 4.94 1099 - Normal
05/03/2026 08 PM PDT 4.92 1083 - Normal
05/03/2026 09 PM PDT 4.92 1083 0 Normal
05/03/2026 10 PM PDT 4.93 1091 + Normal
05/03/2026 11 PM PDT 4.96 1114 + Normal
05/04/2026 12 AM PDT 4.98 1130 + Normal
05/04/2026 01 AM PDT 4.98 1130 0 Normal
05/04/2026 02 AM PDT 4.98 1130 0 Normal
05/04/2026 03 AM PDT 4.97 1122 - Normal
05/04/2026 04 AM PDT 4.96 1114 - Normal
05/04/2026 05 AM PDT 4.96 1114 0 Normal
05/04/2026 06 AM PDT 4.95 1107 - Normal
05/04/2026 07 AM PDT 4.94 1099 - Normal
05/04/2026 08 AM PDT 4.93 1091 - Normal
05/04/2026 09 AM PDT 4.93 1091 0 Normal
05/04/2026 10 AM PDT 4.93 1091 0 Normal
05/04/2026 11 AM PDT 4.92 1083 - Normal
05/04/2026 12 PM PDT 4.89 1060 - Normal
05/04/2026 01 PM PDT 4.87 1045 - Normal
05/04/2026 02 PM PDT 4.87 1045 0 Normal
05/04/2026 03 PM PDT 4.87 1045 0 Normal
05/04/2026 04 PM PDT 4.87 1045 0 Normal
05/04/2026 05 PM PDT 4.87 1045 0 Normal
05/04/2026 06 PM PDT 4.87 1045 0 Normal
05/04/2026 07 PM PDT 4.88 1052 + Normal
05/04/2026 08 PM PDT 4.90 1068 + Normal
05/04/2026 09 PM PDT 4.92 1083 + Normal
05/04/2026 10 PM PDT 4.94 1099 + Normal
05/04/2026 11 PM PDT 4.96 1114 + Normal
05/05/2026 12 AM PDT 4.99 1138 + Normal
05/05/2026 01 AM PDT 5.02 1162 + Normal
05/05/2026 02 AM PDT 5.06 1195 + Normal
05/05/2026 03 AM PDT 5.10 1228 + Normal
05/05/2026 04 AM PDT 5.11 1236 + Normal
05/05/2026 05 AM PDT 5.11 1236 0 Normal
05/05/2026 06 AM PDT 5.09 1220 - Normal
05/05/2026 07 AM PDT 5.07 1203 - Normal
05/05/2026 08 AM PDT 5.05 1187 - Normal
05/05/2026 09 AM PDT 5.03 1171 - Normal
05/05/2026 10 AM PDT 4.97 1122 - Normal
05/05/2026 11 AM PDT 4.95 1107 - Normal
05/05/2026 12 PM PDT 4.93 1091 - Normal
05/05/2026 01 PM PDT 4.92 1083 - Normal
05/05/2026 02 PM PDT 4.91 1075 - Normal
05/05/2026 03 PM PDT 4.91 1075 0 Normal
05/05/2026 04 PM PDT 4.91 1075 0 Normal
05/05/2026 05 PM PDT 4.91 1075 0 Normal
05/05/2026 06 PM PDT 4.91 1075 0 Normal
05/05/2026 07 PM PDT 4.91 1075 0 Normal
05/05/2026 08 PM PDT 4.91 1075 0 Normal
05/05/2026 09 PM PDT 4.91 1075 0 Normal
05/05/2026 10 PM PDT 4.92 1083 + Normal
05/05/2026 11 PM PDT 4.92 1083 0 Normal
05/06/2026 12 AM PDT 4.92 1083 0 Normal
05/06/2026 01 AM PDT 4.93 1091 + Normal
05/06/2026 02 AM PDT 4.93 1091 0 Normal
05/06/2026 03 AM PDT 4.94 1099 + Normal
05/06/2026 04 AM PDT 4.94 1099 0 Normal
05/06/2026 05 AM PDT 4.93 1091 - Normal
05/06/2026 06 AM PDT 4.93 1091 0 Normal
05/06/2026 07 AM PDT 4.92 1083 - Normal
05/06/2026 08 AM PDT 4.91 1075 - Normal
05/06/2026 09 AM PDT 4.91 1075 0 Normal
05/06/2026 10 AM PDT 4.95 1107 + Normal
05/06/2026 11 AM PDT 4.95 1107 0 Normal
05/06/2026 12 PM PDT 4.97 1122 + Normal
05/06/2026 01 PM PDT 4.97 1122 0 Normal
05/06/2026 02 PM PDT 4.97 1122 0 Normal
05/06/2026 03 PM PDT 4.96 1114 - Normal
05/06/2026 04 PM PDT 4.95 1107 - Normal
05/06/2026 05 PM PDT 4.95 1107 0 Normal
05/06/2026 06 PM PDT 4.99 1138 + Normal
05/06/2026 07 PM PDT 5.03 1171 + Normal
05/06/2026 08 PM PDT 5.04 1179 + Normal
05/06/2026 09 PM PDT 5.06 1195 + Normal
05/06/2026 10 PM PDT 5.09 1220 + Normal
05/06/2026 11 PM PDT 5.13 1253 + Normal
05/07/2026 12 AM PDT 5.15 1270 + Normal
05/07/2026 01 AM PDT 5.16 1279 + Normal
05/07/2026 02 AM PDT 5.16 1279 0 Normal
05/07/2026 03 AM PDT 5.16 1279 0 Normal
05/07/2026 04 AM PDT 5.15 1270 - Normal
05/07/2026 05 AM PDT 5.14 1262 - Normal
05/07/2026 06 AM PDT 5.13 1253 - Normal
05/07/2026 07 AM PDT 5.12 1245 - Normal
#
# FORECAST
#
# Date & Time (Local) Stage (Feet) Flow (cfs) Trend Forecast Status
# ---------------------------------------------------------------------------------
05/07/2026 08 AM PDT 5.12 1245 Normal
05/07/2026 09 AM PDT 5.11 1236 - Normal
05/07/2026 10 AM PDT 5.11 1236 0 Normal
05/07/2026 11 AM PDT 5.10 1228 - Normal
05/07/2026 12 PM PDT 5.10 1228 0 Normal
05/07/2026 01 PM PDT 5.09 1220 - Normal
05/07/2026 02 PM PDT 5.09 1220 0 Normal
05/07/2026 03 PM PDT 5.09 1220 0 Normal
05/07/2026 04 PM PDT 5.08 1211 - Normal
05/07/2026 05 PM PDT 5.08 1211 0 Normal
05/07/2026 06 PM PDT 5.08 1211 0 Normal
05/07/2026 07 PM PDT 5.08 1211 0 Normal
05/07/2026 08 PM PDT 5.08 1211 0 Normal
05/07/2026 09 PM PDT 5.08 1211 0 Normal
05/07/2026 10 PM PDT 5.08 1211 0 Normal
05/07/2026 11 PM PDT 5.09 1220 + Normal
05/08/2026 12 AM PDT 5.09 1220 0 Normal
05/08/2026 01 AM PDT 5.11 1236 + Normal
05/08/2026 02 AM PDT 5.12 1245 + Normal
05/08/2026 03 AM PDT 5.13 1253 + Normal
05/08/2026 04 AM PDT 5.14 1262 + Normal
05/08/2026 05 AM PDT 5.16 1279 + Normal
05/08/2026 06 AM PDT 5.16 1279 0 Normal
05/08/2026 07 AM PDT 5.16 1279 0 Normal
05/08/2026 08 AM PDT 5.16 1279 0 Normal
05/08/2026 09 AM PDT 5.15 1270 - Normal
05/08/2026 10 AM PDT 5.14 1262 - Normal
05/08/2026 11 AM PDT 5.13 1253 - Normal
05/08/2026 12 PM PDT 5.13 1253 0 Normal
05/08/2026 01 PM PDT 5.12 1245 - Normal
05/08/2026 02 PM PDT 5.11 1236 - Normal
05/08/2026 03 PM PDT 5.10 1228 - Normal
05/08/2026 04 PM PDT 5.10 1228 0 Normal
05/08/2026 05 PM PDT 5.09 1220 - Normal
05/08/2026 06 PM PDT 5.09 1220 0 Normal
05/08/2026 07 PM PDT 5.08 1211 - Normal
05/08/2026 08 PM PDT 5.08 1211 0 Normal
05/08/2026 09 PM PDT 5.08 1211 0 Normal
05/08/2026 10 PM PDT 5.08 1211 0 Normal
05/08/2026 11 PM PDT 5.09 1220 + Normal
05/09/2026 12 AM PDT 5.10 1228 + Normal
05/09/2026 01 AM PDT 5.11 1236 + Normal
05/09/2026 02 AM PDT 5.12 1245 + Normal
05/09/2026 03 AM PDT 5.13 1253 + Normal
05/09/2026 04 AM PDT 5.14 1262 + Normal
05/09/2026 05 AM PDT 5.16 1279 + Normal
05/09/2026 06 AM PDT 5.16 1279 0 Normal
05/09/2026 07 AM PDT 5.16 1279 0 Normal
05/09/2026 08 AM PDT 5.16 1279 0 Normal
05/09/2026 09 AM PDT 5.15 1270 - Normal
05/09/2026 10 AM PDT 5.14 1262 - Normal
05/09/2026 11 AM PDT 5.13 1253 - Normal
05/09/2026 12 PM PDT 5.12 1245 - Normal
05/09/2026 01 PM PDT 5.12 1245 0 Normal
05/09/2026 02 PM PDT 5.11 1236 - Normal
05/09/2026 03 PM PDT 5.10 1228 - Normal
05/09/2026 04 PM PDT 5.10 1228 0 Normal
05/09/2026 05 PM PDT 5.09 1220 - Normal
05/09/2026 06 PM PDT 5.09 1220 0 Normal
05/09/2026 07 PM PDT 5.08 1211 - Normal
05/09/2026 08 PM PDT 5.08 1211 0 Normal
05/09/2026 09 PM PDT 5.08 1211 0 Normal
05/09/2026 10 PM PDT 5.08 1211 0 Normal
05/09/2026 11 PM PDT 5.08 1211 0 Normal
05/10/2026 12 AM PDT 5.09 1220 + Normal
05/10/2026 01 AM PDT 5.10 1228 + Normal
05/10/2026 02 AM PDT 5.11 1236 + Normal
05/10/2026 03 AM PDT 5.13 1253 + Normal
05/10/2026 04 AM PDT 5.14 1262 + Normal
05/10/2026 05 AM PDT 5.15 1270 + Normal
05/10/2026 06 AM PDT 5.16 1279 + Normal
05/10/2026 07 AM PDT 5.16 1279 0 Normal
05/10/2026 08 AM PDT 5.15 1270 - Normal
05/10/2026 09 AM PDT 5.14 1262 - Normal
05/10/2026 10 AM PDT 5.14 1262 0 Normal
05/10/2026 11 AM PDT 5.13 1253 - Normal
05/10/2026 12 PM PDT 5.12 1245 - Normal
05/10/2026 01 PM PDT 5.11 1236 - Normal
05/10/2026 02 PM PDT 5.10 1228 - Normal
05/10/2026 03 PM PDT 5.10 1228 0 Normal
05/10/2026 04 PM PDT 5.09 1220 - Normal
05/10/2026 05 PM PDT 5.08 1211 - Normal
05/10/2026 06 PM PDT 5.08 1211 0 Normal
05/10/2026 07 PM PDT 5.08 1211 0 Normal
05/10/2026 08 PM PDT 5.08 1211 0 Normal
05/10/2026 09 PM PDT 5.07 1203 - Normal
05/10/2026 10 PM PDT 5.08 1211 + Normal
05/10/2026 11 PM PDT 5.08 1211 0 Normal
05/11/2026 12 AM PDT 5.08 1211 0 Normal
05/11/2026 01 AM PDT 5.08 1211 0 Normal
05/11/2026 02 AM PDT 5.09 1220 + Normal
05/11/2026 03 AM PDT 5.09 1220 0 Normal
05/11/2026 04 AM PDT 5.09 1220 0 Normal
05/11/2026 05 AM PDT 5.10 1228 + Normal
05/11/2026 06 AM PDT 5.10 1228 0 Normal
05/11/2026 07 AM PDT 5.10 1228 0 Normal
05/11/2026 08 AM PDT 5.09 1220 - Normal
05/11/2026 09 AM PDT 5.09 1220 0 Normal
05/11/2026 10 AM PDT 5.09 1220 0 Normal
05/11/2026 11 AM PDT 5.09 1220 0 Normal
05/11/2026 12 PM PDT 5.08 1211 - Normal
05/11/2026 01 PM PDT 5.08 1211 0 Normal
05/11/2026 02 PM PDT 5.08 1211 0 Normal
05/11/2026 03 PM PDT 5.07 1203 - Normal
05/11/2026 04 PM PDT 5.07 1203 0 Normal
05/11/2026 05 PM PDT 5.07 1203 0 Normal
05/11/2026 06 PM PDT 5.07 1203 0 Normal
05/11/2026 07 PM PDT 5.06 1195 - Normal
05/11/2026 08 PM PDT 5.06 1195 0 Normal
05/11/2026 09 PM PDT 5.06 1195 0 Normal
05/11/2026 10 PM PDT 5.06 1195 0 Normal
05/11/2026 11 PM PDT 5.07 1203 + Normal
05/12/2026 12 AM PDT 5.07 1203 0 Normal
05/12/2026 01 AM PDT 5.07 1203 0 Normal
05/12/2026 02 AM PDT 5.08 1211 + Normal
05/12/2026 03 AM PDT 5.08 1211 0 Normal
05/12/2026 04 AM PDT 5.08 1211 0 Normal
05/12/2026 05 AM PDT 5.08 1211 0 Normal
#
# NOTE 1: Stages are rounded to the nearest hundredth (.01) of a foot.
# NOTE 2: Flows are rounded to the nearest (1) cfs.
# NOTE 3: Trends are determined using hourly change in unrounded stage and flow.
# NOTE 4: Maximum Values are determined using unrounded stage and flow.
|